sensor_id;sensor_type;location;lat;lon;timestamp;P1;durP1;ratioP1;P2;durP2;ratioP2
59587;SDS011;45412;54.472;18.464;2022-12-07T00:02:25;18.90;;;7.80;;
59587;SDS011;45412;54.472;18.464;2022-12-07T00:05:14;18.10;;;7.60;;
59587;SDS011;45412;54.472;18.464;2022-12-07T00:08:02;18.20;;;7.60;;
59587;SDS011;45412;54.472;18.464;2022-12-07T00:10:50;18.40;;;7.80;;
59587;SDS011;45412;54.472;18.464;2022-12-07T00:13:39;16.50;;;7.30;;
59587;SDS011;45412;54.472;18.464;2022-12-07T00:16:31;17.30;;;7.70;;
59587;SDS011;45412;54.472;18.464;2022-12-07T00:19:19;16.40;;;7.60;;
59587;SDS011;45412;54.472;18.464;2022-12-07T00:22:07;18.80;;;7.40;;
59587;SDS011;45412;54.472;18.464;2022-12-07T00:24:55;16.10;;;7.10;;
59587;SDS011;45412;54.472;18.464;2022-12-07T00:27:42;17.20;;;7.70;;
59587;SDS011;45412;54.472;18.464;2022-12-07T00:30:30;16.80;;;7.50;;
59587;SDS011;45412;54.472;18.464;2022-12-07T00:33:18;18.80;;;9.30;;
59587;SDS011;45412;54.472;18.464;2022-12-07T00:36:09;14.40;;;5.50;;
59587;SDS011;45412;54.472;18.464;2022-12-07T00:38:59;17.70;;;8.00;;
59587;SDS011;45412;54.472;18.464;2022-12-07T00:41:48;15.90;;;7.30;;
59587;SDS011;45412;54.472;18.464;2022-12-07T00:44:35;15.00;;;6.80;;
59587;SDS011;45412;54.472;18.464;2022-12-07T00:47:23;17.80;;;7.20;;
59587;SDS011;45412;54.472;18.464;2022-12-07T00:50:11;14.70;;;5.80;;
59587;SDS011;45412;54.472;18.464;2022-12-07T00:52:59;15.40;;;6.80;;
59587;SDS011;45412;54.472;18.464;2022-12-07T00:55:46;18.40;;;7.10;;
59587;SDS011;45412;54.472;18.464;2022-12-07T00:58:35;14.40;;;6.80;;
59587;SDS011;45412;54.472;18.464;2022-12-07T01:01:25;15.70;;;7.00;;
59587;SDS011;45412;54.472;18.464;2022-12-07T01:04:14;15.60;;;7.00;;
59587;SDS011;45412;54.472;18.464;2022-12-07T01:07:02;16.80;;;6.10;;
59587;SDS011;45412;54.472;18.464;2022-12-07T01:09:50;13.70;;;5.70;;
59587;SDS011;45412;54.472;18.464;2022-12-07T01:12:37;15.20;;;6.10;;
59587;SDS011;45412;54.472;18.464;2022-12-07T01:15:25;13.30;;;5.30;;
59587;SDS011;45412;54.472;18.464;2022-12-07T01:18:13;14.50;;;6.30;;
59587;SDS011;45412;54.472;18.464;2022-12-07T01:21:04;17.60;;;6.80;;
59587;SDS011;45412;54.472;18.464;2022-12-07T01:23:54;15.70;;;6.80;;
59587;SDS011;45412;54.472;18.464;2022-12-07T01:26:42;15.10;;;6.20;;
59587;SDS011;45412;54.472;18.464;2022-12-07T01:29:30;16.20;;;7.00;;
59587;SDS011;45412;54.472;18.464;2022-12-07T01:32:17;15.30;;;6.70;;
59587;SDS011;45412;54.472;18.464;2022-12-07T01:35:05;14.00;;;5.40;;
59587;SDS011;45412;54.472;18.464;2022-12-07T01:37:53;13.80;;;6.40;;
59587;SDS011;45412;54.472;18.464;2022-12-07T01:40:41;16.20;;;6.50;;
59587;SDS011;45412;54.472;18.464;2022-12-07T01:43:33;15.70;;;6.30;;
59587;SDS011;45412;54.472;18.464;2022-12-07T01:46:21;13.50;;;5.90;;
59587;SDS011;45412;54.472;18.464;2022-12-07T01:49:32;14.90;;;6.10;;
59587;SDS011;45412;54.472;18.464;2022-12-07T01:52:29;14.20;;;5.70;;
59587;SDS011;45412;54.472;18.464;2022-12-07T01:55:21;14.00;;;6.30;;
59587;SDS011;45412;54.472;18.464;2022-12-07T01:58:09;15.40;;;6.30;;
59587;SDS011;45412;54.472;18.464;2022-12-07T02:00:59;15.60;;;6.00;;
59587;SDS011;45412;54.472;18.464;2022-12-07T02:03:47;15.80;;;6.70;;
59587;SDS011;45412;54.472;18.464;2022-12-07T02:06:35;15.00;;;5.80;;
59587;SDS011;45412;54.472;18.464;2022-12-07T02:09:24;14.50;;;6.30;;
59587;SDS011;45412;54.472;18.464;2022-12-07T02:12:12;12.90;;;5.80;;
59587;SDS011;45412;54.472;18.464;2022-12-07T02:15:00;14.10;;;6.10;;
59587;SDS011;45412;54.472;18.464;2022-12-07T02:20:39;13.60;;;5.40;;
59587;SDS011;45412;54.472;18.464;2022-12-07T02:33:14;13.20;;;5.30;;
59587;SDS011;45412;54.472;18.464;2022-12-07T02:36:12;11.20;;;4.50;;
59587;SDS011;45412;54.472;18.464;2022-12-07T02:43:08;12.00;;;4.50;;
59587;SDS011;45412;54.472;18.464;2022-12-07T02:46:07;13.90;;;5.10;;
59587;SDS011;45412;54.472;18.464;2022-12-07T02:49:00;12.20;;;5.00;;
59587;SDS011;45412;54.472;18.464;2022-12-07T02:51:49;11.60;;;5.10;;
59587;SDS011;45412;54.472;18.464;2022-12-07T02:54:39;12.40;;;5.10;;
59587;SDS011;45412;54.472;18.464;2022-12-07T02:57:55;10.50;;;4.60;;
59587;SDS011;45412;54.472;18.464;2022-12-07T03:04:55;10.10;;;4.30;;
59587;SDS011;45412;54.472;18.464;2022-12-07T03:11:03;12.00;;;4.70;;
59587;SDS011;45412;54.472;18.464;2022-12-07T03:14:09;11.10;;;4.70;;
59587;SDS011;45412;54.472;18.464;2022-12-07T03:17:12;10.50;;;4.40;;
59587;SDS011;45412;54.472;18.464;2022-12-07T03:20:04;9.70;;;3.90;;
59587;SDS011;45412;54.472;18.464;2022-12-07T03:22:55;10.60;;;4.00;;
59587;SDS011;45412;54.472;18.464;2022-12-07T03:25:49;10.50;;;3.90;;
59587;SDS011;45412;54.472;18.464;2022-12-07T03:28:52;9.70;;;3.70;;
59587;SDS011;45412;54.472;18.464;2022-12-07T03:31:47;10.30;;;4.40;;
59587;SDS011;45412;54.472;18.464;2022-12-07T03:34:50;10.30;;;4.30;;
59587;SDS011;45412;54.472;18.464;2022-12-07T03:37:48;9.80;;;4.30;;
59587;SDS011;45412;54.472;18.464;2022-12-07T03:40:48;10.00;;;3.90;;
59587;SDS011;45412;54.472;18.464;2022-12-07T03:43:42;9.10;;;3.80;;
59587;SDS011;45412;54.472;18.464;2022-12-07T03:49:55;8.90;;;3.50;;
59587;SDS011;45412;54.472;18.464;2022-12-07T03:52:56;8.70;;;3.80;;
59587;SDS011;45412;54.472;18.464;2022-12-07T03:55:50;9.70;;;3.60;;
59587;SDS011;45412;54.472;18.464;2022-12-07T03:58:39;9.10;;;3.70;;
59587;SDS011;45412;54.472;18.464;2022-12-07T04:01:28;9.30;;;3.80;;
59587;SDS011;45412;54.472;18.464;2022-12-07T04:04:16;9.60;;;3.80;;
59587;SDS011;45412;54.472;18.464;2022-12-07T04:07:05;9.00;;;4.10;;
59587;SDS011;45412;54.472;18.464;2022-12-07T04:09:53;10.70;;;3.80;;
59587;SDS011;45412;54.472;18.464;2022-12-07T04:12:42;8.60;;;3.60;;
59587;SDS011;45412;54.472;18.464;2022-12-07T04:15:29;9.30;;;3.80;;
59587;SDS011;45412;54.472;18.464;2022-12-07T04:18:17;8.50;;;3.50;;
59587;SDS011;45412;54.472;18.464;2022-12-07T04:21:05;9.10;;;4.00;;
59587;SDS011;45412;54.472;18.464;2022-12-07T04:23:53;10.30;;;4.30;;
59587;SDS011;45412;54.472;18.464;2022-12-07T04:26:42;8.60;;;3.90;;
59587;SDS011;45412;54.472;18.464;2022-12-07T04:29:30;9.00;;;4.20;;
59587;SDS011;45412;54.472;18.464;2022-12-07T04:32:18;7.90;;;3.60;;
59587;SDS011;45412;54.472;18.464;2022-12-07T04:35:06;8.10;;;3.40;;
59587;SDS011;45412;54.472;18.464;2022-12-07T04:37:55;8.00;;;3.10;;
59587;SDS011;45412;54.472;18.464;2022-12-07T04:40:42;8.20;;;3.50;;
59587;SDS011;45412;54.472;18.464;2022-12-07T04:43:30;8.20;;;3.40;;
59587;SDS011;45412;54.472;18.464;2022-12-07T04:46:18;8.90;;;3.30;;
59587;SDS011;45412;54.472;18.464;2022-12-07T04:49:06;7.80;;;3.10;;
59587;SDS011;45412;54.472;18.464;2022-12-07T04:51:54;7.20;;;3.20;;
59587;SDS011;45412;54.472;18.464;2022-12-07T04:54:41;8.00;;;3.00;;
59587;SDS011;45412;54.472;18.464;2022-12-07T04:57:29;6.90;;;2.90;;
59587;SDS011;45412;54.472;18.464;2022-12-07T05:00:17;8.80;;;3.50;;
59587;SDS011;45412;54.472;18.464;2022-12-07T05:03:05;19.70;;;8.20;;
59587;SDS011;45412;54.472;18.464;2022-12-07T05:05:53;14.70;;;6.90;;
59587;SDS011;45412;54.472;18.464;2022-12-07T05:08:41;22.30;;;9.60;;
59587;SDS011;45412;54.472;18.464;2022-12-07T05:11:29;14.30;;;6.60;;
59587;SDS011;45412;54.472;18.464;2022-12-07T05:14:26;10.50;;;4.20;;
59587;SDS011;45412;54.472;18.464;2022-12-07T05:17:14;6.80;;;2.90;;
59587;SDS011;45412;54.472;18.464;2022-12-07T05:20:01;7.30;;;2.90;;
59587;SDS011;45412;54.472;18.464;2022-12-07T05:22:50;7.00;;;2.90;;
59587;SDS011;45412;54.472;18.464;2022-12-07T05:25:38;7.40;;;2.80;;
59587;SDS011;45412;54.472;18.464;2022-12-07T05:28:26;7.40;;;2.60;;
59587;SDS011;45412;54.472;18.464;2022-12-07T05:31:14;6.90;;;3.00;;
59587;SDS011;45412;54.472;18.464;2022-12-07T05:34:02;6.10;;;2.50;;
59587;SDS011;45412;54.472;18.464;2022-12-07T05:36:49;6.60;;;2.50;;
59587;SDS011;45412;54.472;18.464;2022-12-07T05:39:37;5.90;;;2.20;;
59587;SDS011;45412;54.472;18.464;2022-12-07T05:42:27;5.70;;;2.00;;
59587;SDS011;45412;54.472;18.464;2022-12-07T05:45:16;5.90;;;1.80;;
59587;SDS011;45412;54.472;18.464;2022-12-07T05:48:04;6.10;;;2.10;;
59587;SDS011;45412;54.472;18.464;2022-12-07T05:50:52;5.60;;;1.90;;
59587;SDS011;45412;54.472;18.464;2022-12-07T05:53:40;6.30;;;1.80;;
59587;SDS011;45412;54.472;18.464;2022-12-07T05:56:28;5.20;;;1.90;;
59587;SDS011;45412;54.472;18.464;2022-12-07T05:59:16;5.40;;;1.70;;
59587;SDS011;45412;54.472;18.464;2022-12-07T06:02:12;6.10;;;2.20;;
59587;SDS011;45412;54.472;18.464;2022-12-07T06:05:02;5.50;;;1.90;;
59587;SDS011;45412;54.472;18.464;2022-12-07T06:07:50;5.50;;;2.00;;
59587;SDS011;45412;54.472;18.464;2022-12-07T06:10:38;5.20;;;1.80;;
59587;SDS011;45412;54.472;18.464;2022-12-07T06:13:25;5.20;;;1.60;;
59587;SDS011;45412;54.472;18.464;2022-12-07T06:16:13;5.60;;;1.70;;
59587;SDS011;45412;54.472;18.464;2022-12-07T06:19:01;5.50;;;2.10;;
59587;SDS011;45412;54.472;18.464;2022-12-07T06:21:49;4.90;;;1.60;;
59587;SDS011;45412;54.472;18.464;2022-12-07T06:24:37;4.90;;;1.40;;
59587;SDS011;45412;54.472;18.464;2022-12-07T06:27:25;4.90;;;1.40;;
59587;SDS011;45412;54.472;18.464;2022-12-07T06:30:13;4.70;;;1.40;;
59587;SDS011;45412;54.472;18.464;2022-12-07T06:33:01;5.40;;;1.60;;
59587;SDS011;45412;54.472;18.464;2022-12-07T06:35:49;5.70;;;1.50;;
59587;SDS011;45412;54.472;18.464;2022-12-07T06:38:37;5.90;;;1.70;;
59587;SDS011;45412;54.472;18.464;2022-12-07T06:41:24;6.30;;;2.00;;
59587;SDS011;45412;54.472;18.464;2022-12-07T06:44:13;5.30;;;1.70;;
59587;SDS011;45412;54.472;18.464;2022-12-07T06:47:01;5.90;;;1.80;;
59587;SDS011;45412;54.472;18.464;2022-12-07T06:50:09;5.10;;;1.50;;
59587;SDS011;45412;54.472;18.464;2022-12-07T06:52:57;6.60;;;2.50;;
59587;SDS011;45412;54.472;18.464;2022-12-07T06:55:45;7.60;;;2.90;;
59587;SDS011;45412;54.472;18.464;2022-12-07T06:58:33;8.70;;;3.00;;
59587;SDS011;45412;54.472;18.464;2022-12-07T07:01:20;7.50;;;2.90;;
59587;SDS011;45412;54.472;18.464;2022-12-07T07:04:08;9.80;;;3.60;;
59587;SDS011;45412;54.472;18.464;2022-12-07T07:06:56;11.60;;;4.00;;
59587;SDS011;45412;54.472;18.464;2022-12-07T07:09:46;9.40;;;3.40;;
59587;SDS011;45412;54.472;18.464;2022-12-07T07:12:34;9.90;;;5.40;;
59587;SDS011;45412;54.472;18.464;2022-12-07T07:15:22;8.80;;;3.20;;
59587;SDS011;45412;54.472;18.464;2022-12-07T07:18:09;8.40;;;3.40;;
59587;SDS011;45412;54.472;18.464;2022-12-07T07:20:58;8.20;;;3.30;;
59587;SDS011;45412;54.472;18.464;2022-12-07T07:23:46;10.40;;;3.30;;
59587;SDS011;45412;54.472;18.464;2022-12-07T07:26:33;12.60;;;3.50;;
59587;SDS011;45412;54.472;18.464;2022-12-07T07:29:21;9.10;;;3.80;;
59587;SDS011;45412;54.472;18.464;2022-12-07T07:32:09;7.90;;;3.00;;
59587;SDS011;45412;54.472;18.464;2022-12-07T07:34:57;9.50;;;3.50;;
59587;SDS011;45412;54.472;18.464;2022-12-07T07:37:44;11.00;;;3.90;;
59587;SDS011;45412;54.472;18.464;2022-12-07T07:40:32;10.50;;;3.70;;
59587;SDS011;45412;54.472;18.464;2022-12-07T07:43:20;8.50;;;3.40;;
59587;SDS011;45412;54.472;18.464;2022-12-07T07:46:08;9.50;;;3.90;;
59587;SDS011;45412;54.472;18.464;2022-12-07T07:48:56;9.90;;;3.80;;
59587;SDS011;45412;54.472;18.464;2022-12-07T07:51:43;11.70;;;3.40;;
59587;SDS011;45412;54.472;18.464;2022-12-07T07:54:31;10.10;;;4.20;;
59587;SDS011;45412;54.472;18.464;2022-12-07T07:57:19;11.10;;;3.80;;
59587;SDS011;45412;54.472;18.464;2022-12-07T08:00:12;9.40;;;3.80;;
59587;SDS011;45412;54.472;18.464;2022-12-07T08:03:04;10.80;;;3.50;;
59587;SDS011;45412;54.472;18.464;2022-12-07T08:05:52;10.40;;;3.70;;
59587;SDS011;45412;54.472;18.464;2022-12-07T08:08:40;10.60;;;4.50;;
59587;SDS011;45412;54.472;18.464;2022-12-07T08:11:28;9.10;;;4.30;;
59587;SDS011;45412;54.472;18.464;2022-12-07T08:14:16;9.60;;;3.70;;
59587;SDS011;45412;54.472;18.464;2022-12-07T08:17:04;9.30;;;4.40;;
59587;SDS011;45412;54.472;18.464;2022-12-07T08:19:52;10.20;;;4.10;;
59587;SDS011;45412;54.472;18.464;2022-12-07T08:22:39;8.60;;;3.90;;
59587;SDS011;45412;54.472;18.464;2022-12-07T08:25:27;10.00;;;4.10;;
59587;SDS011;45412;54.472;18.464;2022-12-07T08:28:16;10.80;;;3.90;;
59587;SDS011;45412;54.472;18.464;2022-12-07T08:31:11;10.70;;;4.60;;
59587;SDS011;45412;54.472;18.464;2022-12-07T08:34:01;10.30;;;4.00;;
59587;SDS011;45412;54.472;18.464;2022-12-07T08:36:49;8.70;;;4.00;;
59587;SDS011;45412;54.472;18.464;2022-12-07T08:39:36;8.90;;;4.10;;
59587;SDS011;45412;54.472;18.464;2022-12-07T08:42:24;8.80;;;3.70;;
59587;SDS011;45412;54.472;18.464;2022-12-07T08:45:17;8.30;;;3.40;;
59587;SDS011;45412;54.472;18.464;2022-12-07T08:48:13;8.90;;;3.90;;
59587;SDS011;45412;54.472;18.464;2022-12-07T08:51:04;8.90;;;3.80;;
59587;SDS011;45412;54.472;18.464;2022-12-07T08:53:52;7.50;;;3.10;;
59587;SDS011;45412;54.472;18.464;2022-12-07T08:56:41;9.20;;;4.00;;
59587;SDS011;45412;54.472;18.464;2022-12-07T08:59:29;8.30;;;3.30;;
59587;SDS011;45412;54.472;18.464;2022-12-07T09:02:18;8.00;;;3.10;;
59587;SDS011;45412;54.472;18.464;2022-12-07T09:05:06;6.80;;;2.70;;
59587;SDS011;45412;54.472;18.464;2022-12-07T09:08:02;9.30;;;3.70;;
59587;SDS011;45412;54.472;18.464;2022-12-07T09:10:50;11.00;;;3.70;;
59587;SDS011;45412;54.472;18.464;2022-12-07T09:13:38;10.00;;;4.00;;
59587;SDS011;45412;54.472;18.464;2022-12-07T09:16:26;8.10;;;2.90;;
59587;SDS011;45412;54.472;18.464;2022-12-07T09:19:14;7.70;;;3.50;;
59587;SDS011;45412;54.472;18.464;2022-12-07T09:22:02;8.20;;;3.50;;
59587;SDS011;45412;54.472;18.464;2022-12-07T09:24:52;7.90;;;3.30;;
59587;SDS011;45412;54.472;18.464;2022-12-07T09:27:41;10.70;;;3.40;;
59587;SDS011;45412;54.472;18.464;2022-12-07T09:30:29;10.60;;;3.60;;
59587;SDS011;45412;54.472;18.464;2022-12-07T09:33:16;7.50;;;3.40;;
59587;SDS011;45412;54.472;18.464;2022-12-07T09:36:04;8.30;;;3.70;;
59587;SDS011;45412;54.472;18.464;2022-12-07T09:38:52;7.20;;;2.90;;
59587;SDS011;45412;54.472;18.464;2022-12-07T09:41:41;7.70;;;3.10;;
59587;SDS011;45412;54.472;18.464;2022-12-07T09:44:35;9.10;;;3.40;;
59587;SDS011;45412;54.472;18.464;2022-12-07T09:47:22;9.10;;;3.80;;
59587;SDS011;45412;54.472;18.464;2022-12-07T09:50:24;9.60;;;4.50;;
59587;SDS011;45412;54.472;18.464;2022-12-07T09:53:20;10.40;;;4.40;;
59587;SDS011;45412;54.472;18.464;2022-12-07T09:56:13;11.30;;;4.60;;
59587;SDS011;45412;54.472;18.464;2022-12-07T09:59:03;10.40;;;4.60;;
59587;SDS011;45412;54.472;18.464;2022-12-07T10:01:51;10.90;;;4.60;;
59587;SDS011;45412;54.472;18.464;2022-12-07T10:04:39;12.80;;;5.30;;
59587;SDS011;45412;54.472;18.464;2022-12-07T10:07:27;10.80;;;5.10;;
59587;SDS011;45412;54.472;18.464;2022-12-07T10:10:24;9.60;;;4.60;;
59587;SDS011;45412;54.472;18.464;2022-12-07T10:13:22;9.30;;;4.60;;
59587;SDS011;45412;54.472;18.464;2022-12-07T10:22:12;10.10;;;4.30;;
59587;SDS011;45412;54.472;18.464;2022-12-07T10:25:09;8.60;;;4.10;;
59587;SDS011;45412;54.472;18.464;2022-12-07T10:31:00;10.10;;;4.50;;
59587;SDS011;45412;54.472;18.464;2022-12-07T10:33:57;10.40;;;4.30;;
59587;SDS011;45412;54.472;18.464;2022-12-07T10:36:46;8.10;;;3.50;;
59587;SDS011;45412;54.472;18.464;2022-12-07T10:42:32;11.80;;;4.40;;
59587;SDS011;45412;54.472;18.464;2022-12-07T10:45:19;10.00;;;4.50;;
59587;SDS011;45412;54.472;18.464;2022-12-07T10:48:22;10.90;;;4.70;;
59587;SDS011;45412;54.472;18.464;2022-12-07T10:51:32;10.80;;;4.20;;
59587;SDS011;45412;54.472;18.464;2022-12-07T11:10:59;9.70;;;4.40;;
59587;SDS011;45412;54.472;18.464;2022-12-07T11:14:23;8.80;;;4.20;;
59587;SDS011;45412;54.472;18.464;2022-12-07T11:33:00;9.70;;;3.90;;
59587;SDS011;45412;54.472;18.464;2022-12-07T11:39:02;15.50;;;6.40;;
59587;SDS011;45412;54.472;18.464;2022-12-07T11:41:57;8.90;;;4.10;;
59587;SDS011;45412;54.472;18.464;2022-12-07T11:45:26;9.50;;;4.00;;
59587;SDS011;45412;54.472;18.464;2022-12-07T11:48:24;9.10;;;4.00;;
59587;SDS011;45412;54.472;18.464;2022-12-07T11:51:49;7.70;;;3.50;;
59587;SDS011;45412;54.472;18.464;2022-12-07T11:54:40;9.50;;;4.10;;
59587;SDS011;45412;54.472;18.464;2022-12-07T11:57:38;9.50;;;5.00;;
59587;SDS011;45412;54.472;18.464;2022-12-07T12:00:32;8.40;;;3.50;;
59587;SDS011;45412;54.472;18.464;2022-12-07T12:03:28;8.10;;;3.80;;
59587;SDS011;45412;54.472;18.464;2022-12-07T12:06:21;11.40;;;6.10;;
59587;SDS011;45412;54.472;18.464;2022-12-07T12:09:23;12.30;;;5.80;;
59587;SDS011;45412;54.472;18.464;2022-12-07T12:12:40;9.60;;;4.10;;
59587;SDS011;45412;54.472;18.464;2022-12-07T12:23:00;11.50;;;5.40;;
59587;SDS011;45412;54.472;18.464;2022-12-07T12:25:55;15.20;;;6.00;;
59587;SDS011;45412;54.472;18.464;2022-12-07T12:28:58;12.20;;;5.10;;
59587;SDS011;45412;54.472;18.464;2022-12-07T12:32:03;11.40;;;5.50;;
59587;SDS011;45412;54.472;18.464;2022-12-07T12:35:20;10.80;;;4.80;;
59587;SDS011;45412;54.472;18.464;2022-12-07T12:38:29;10.10;;;4.10;;
59587;SDS011;45412;54.472;18.464;2022-12-07T12:50:35;11.20;;;4.80;;
59587;SDS011;45412;54.472;18.464;2022-12-07T12:53:26;10.60;;;4.70;;
59587;SDS011;45412;54.472;18.464;2022-12-07T12:56:26;8.80;;;4.00;;
59587;SDS011;45412;54.472;18.464;2022-12-07T13:03:16;9.50;;;4.00;;
59587;SDS011;45412;54.472;18.464;2022-12-07T13:06:40;9.50;;;3.80;;
59587;SDS011;45412;54.472;18.464;2022-12-07T13:09:31;9.10;;;3.70;;
59587;SDS011;45412;54.472;18.464;2022-12-07T13:12:21;9.00;;;4.10;;
59587;SDS011;45412;54.472;18.464;2022-12-07T13:15:36;8.80;;;3.90;;
59587;SDS011;45412;54.472;18.464;2022-12-07T13:18:37;8.60;;;3.80;;
59587;SDS011;45412;54.472;18.464;2022-12-07T13:24:13;9.40;;;3.40;;
59587;SDS011;45412;54.472;18.464;2022-12-07T13:27:01;12.50;;;4.50;;
59587;SDS011;45412;54.472;18.464;2022-12-07T13:29:50;13.10;;;5.00;;
59587;SDS011;45412;54.472;18.464;2022-12-07T13:32:38;10.90;;;4.40;;
59587;SDS011;45412;54.472;18.464;2022-12-07T13:35:30;10.70;;;4.30;;
59587;SDS011;45412;54.472;18.464;2022-12-07T13:38:28;9.90;;;4.00;;
59587;SDS011;45412;54.472;18.464;2022-12-07T13:41:21;11.90;;;4.20;;
59587;SDS011;45412;54.472;18.464;2022-12-07T13:44:13;11.20;;;4.20;;
59587;SDS011;45412;54.472;18.464;2022-12-07T13:47:16;12.70;;;4.40;;
59587;SDS011;45412;54.472;18.464;2022-12-07T13:53:13;10.70;;;4.30;;
59587;SDS011;45412;54.472;18.464;2022-12-07T13:56:01;9.50;;;4.30;;
59587;SDS011;45412;54.472;18.464;2022-12-07T13:58:50;9.30;;;4.10;;
59587;SDS011;45412;54.472;18.464;2022-12-07T14:01:38;9.60;;;3.70;;
59587;SDS011;45412;54.472;18.464;2022-12-07T14:04:33;8.80;;;3.50;;
59587;SDS011;45412;54.472;18.464;2022-12-07T14:07:27;10.10;;;4.00;;
59587;SDS011;45412;54.472;18.464;2022-12-07T14:10:33;9.70;;;3.80;;
59587;SDS011;45412;54.472;18.464;2022-12-07T14:13:35;10.10;;;4.30;;
59587;SDS011;45412;54.472;18.464;2022-12-07T14:16:36;9.40;;;3.70;;
59587;SDS011;45412;54.472;18.464;2022-12-07T14:19:44;8.90;;;3.40;;
59587;SDS011;45412;54.472;18.464;2022-12-07T14:22:37;8.30;;;3.20;;
59587;SDS011;45412;54.472;18.464;2022-12-07T14:25:26;11.40;;;4.90;;
59587;SDS011;45412;54.472;18.464;2022-12-07T14:28:28;12.10;;;4.40;;
59587;SDS011;45412;54.472;18.464;2022-12-07T14:31:21;10.90;;;3.80;;
59587;SDS011;45412;54.472;18.464;2022-12-07T14:34:20;12.90;;;5.60;;
59587;SDS011;45412;54.472;18.464;2022-12-07T14:37:09;10.20;;;3.50;;
59587;SDS011;45412;54.472;18.464;2022-12-07T14:39:58;9.30;;;4.10;;
59587;SDS011;45412;54.472;18.464;2022-12-07T14:42:47;9.80;;;3.90;;
59587;SDS011;45412;54.472;18.464;2022-12-07T14:45:38;12.60;;;4.70;;
59587;SDS011;45412;54.472;18.464;2022-12-07T14:48:29;10.90;;;4.40;;
59587;SDS011;45412;54.472;18.464;2022-12-07T14:51:38;12.40;;;4.20;;
59587;SDS011;45412;54.472;18.464;2022-12-07T14:54:48;11.80;;;5.20;;
59587;SDS011;45412;54.472;18.464;2022-12-07T14:57:36;9.70;;;3.60;;
59587;SDS011;45412;54.472;18.464;2022-12-07T15:00:25;8.70;;;3.50;;
59587;SDS011;45412;54.472;18.464;2022-12-07T15:03:16;9.70;;;3.30;;
59587;SDS011;45412;54.472;18.464;2022-12-07T15:06:05;10.10;;;3.80;;
59587;SDS011;45412;54.472;18.464;2022-12-07T15:08:56;9.70;;;3.40;;
59587;SDS011;45412;54.472;18.464;2022-12-07T15:11:44;9.10;;;3.40;;
59587;SDS011;45412;54.472;18.464;2022-12-07T15:14:31;9.70;;;3.30;;
59587;SDS011;45412;54.472;18.464;2022-12-07T15:17:19;11.00;;;3.30;;
59587;SDS011;45412;54.472;18.464;2022-12-07T15:20:17;8.50;;;3.10;;
59587;SDS011;45412;54.472;18.464;2022-12-07T15:23:06;9.10;;;3.30;;
59587;SDS011;45412;54.472;18.464;2022-12-07T15:25:53;8.80;;;3.40;;
59587;SDS011;45412;54.472;18.464;2022-12-07T15:28:41;9.40;;;3.40;;
59587;SDS011;45412;54.472;18.464;2022-12-07T15:31:29;9.80;;;3.80;;
59587;SDS011;45412;54.472;18.464;2022-12-07T15:34:37;12.90;;;4.00;;
59587;SDS011;45412;54.472;18.464;2022-12-07T15:37:27;10.80;;;4.00;;
59587;SDS011;45412;54.472;18.464;2022-12-07T15:40:15;11.80;;;4.10;;
59587;SDS011;45412;54.472;18.464;2022-12-07T15:43:03;9.90;;;3.70;;
59587;SDS011;45412;54.472;18.464;2022-12-07T15:45:51;9.90;;;4.00;;
59587;SDS011;45412;54.472;18.464;2022-12-07T15:48:39;9.10;;;3.30;;
59587;SDS011;45412;54.472;18.464;2022-12-07T15:51:27;9.50;;;3.20;;
59587;SDS011;45412;54.472;18.464;2022-12-07T15:54:23;10.50;;;3.80;;
59587;SDS011;45412;54.472;18.464;2022-12-07T15:57:13;9.30;;;3.70;;
59587;SDS011;45412;54.472;18.464;2022-12-07T16:00:08;10.40;;;3.70;;
59587;SDS011;45412;54.472;18.464;2022-12-07T16:02:57;8.80;;;3.10;;
59587;SDS011;45412;54.472;18.464;2022-12-07T16:05:51;11.00;;;4.00;;
59587;SDS011;45412;54.472;18.464;2022-12-07T16:08:48;12.90;;;4.50;;
59587;SDS011;45412;54.472;18.464;2022-12-07T16:11:36;10.40;;;4.00;;
59587;SDS011;45412;54.472;18.464;2022-12-07T16:14:25;10.20;;;4.80;;
59587;SDS011;45412;54.472;18.464;2022-12-07T16:17:13;8.40;;;3.10;;
59587;SDS011;45412;54.472;18.464;2022-12-07T16:20:03;8.40;;;3.50;;
59587;SDS011;45412;54.472;18.464;2022-12-07T16:22:52;9.00;;;3.50;;
59587;SDS011;45412;54.472;18.464;2022-12-07T16:25:40;8.30;;;3.50;;
59587;SDS011;45412;54.472;18.464;2022-12-07T16:28:28;9.10;;;3.80;;
59587;SDS011;45412;54.472;18.464;2022-12-07T16:31:20;11.20;;;4.50;;
59587;SDS011;45412;54.472;18.464;2022-12-07T16:34:10;11.10;;;4.40;;
59587;SDS011;45412;54.472;18.464;2022-12-07T16:36:58;11.50;;;4.70;;
59587;SDS011;45412;54.472;18.464;2022-12-07T16:39:51;10.20;;;4.30;;
59587;SDS011;45412;54.472;18.464;2022-12-07T16:42:40;12.10;;;3.70;;
59587;SDS011;45412;54.472;18.464;2022-12-07T16:45:28;8.60;;;2.90;;
59587;SDS011;45412;54.472;18.464;2022-12-07T16:48:16;10.60;;;3.90;;
59587;SDS011;45412;54.472;18.464;2022-12-07T16:51:08;11.30;;;4.30;;
59587;SDS011;45412;54.472;18.464;2022-12-07T16:53:58;9.10;;;3.50;;
59587;SDS011;45412;54.472;18.464;2022-12-07T16:56:46;7.20;;;3.00;;
59587;SDS011;45412;54.472;18.464;2022-12-07T16:59:33;10.70;;;3.80;;
59587;SDS011;45412;54.472;18.464;2022-12-07T17:02:21;7.80;;;3.20;;
59587;SDS011;45412;54.472;18.464;2022-12-07T17:05:17;10.10;;;3.90;;
59587;SDS011;45412;54.472;18.464;2022-12-07T17:08:12;10.20;;;3.30;;
59587;SDS011;45412;54.472;18.464;2022-12-07T17:11:17;9.20;;;3.50;;
59587;SDS011;45412;54.472;18.464;2022-12-07T17:14:14;6.40;;;2.50;;
59587;SDS011;45412;54.472;18.464;2022-12-07T17:17:26;8.60;;;2.90;;
59587;SDS011;45412;54.472;18.464;2022-12-07T17:20:36;7.90;;;2.90;;
59587;SDS011;45412;54.472;18.464;2022-12-07T17:23:39;8.10;;;3.00;;
59587;SDS011;45412;54.472;18.464;2022-12-07T17:26:29;9.40;;;2.90;;
59587;SDS011;45412;54.472;18.464;2022-12-07T17:29:26;6.50;;;2.40;;
59587;SDS011;45412;54.472;18.464;2022-12-07T17:32:14;7.00;;;2.60;;
59587;SDS011;45412;54.472;18.464;2022-12-07T17:35:02;7.40;;;2.50;;
59587;SDS011;45412;54.472;18.464;2022-12-07T17:37:51;7.10;;;2.20;;
59587;SDS011;45412;54.472;18.464;2022-12-07T17:40:39;8.00;;;2.80;;
59587;SDS011;45412;54.472;18.464;2022-12-07T17:43:27;8.40;;;3.00;;
59587;SDS011;45412;54.472;18.464;2022-12-07T17:46:15;9.40;;;3.30;;
59587;SDS011;45412;54.472;18.464;2022-12-07T17:49:03;11.10;;;3.90;;
59587;SDS011;45412;54.472;18.464;2022-12-07T17:51:52;9.50;;;3.80;;
59587;SDS011;45412;54.472;18.464;2022-12-07T17:54:59;9.10;;;3.40;;
59587;SDS011;45412;54.472;18.464;2022-12-07T17:57:48;7.80;;;3.20;;
59587;SDS011;45412;54.472;18.464;2022-12-07T18:00:36;7.70;;;2.80;;
59587;SDS011;45412;54.472;18.464;2022-12-07T18:03:25;7.90;;;3.30;;
59587;SDS011;45412;54.472;18.464;2022-12-07T18:06:13;7.70;;;3.10;;
59587;SDS011;45412;54.472;18.464;2022-12-07T18:09:01;8.10;;;3.00;;
59587;SDS011;45412;54.472;18.464;2022-12-07T18:11:49;7.00;;;2.70;;
59587;SDS011;45412;54.472;18.464;2022-12-07T18:14:37;7.00;;;2.60;;
59587;SDS011;45412;54.472;18.464;2022-12-07T18:17:25;7.90;;;2.30;;
59587;SDS011;45412;54.472;18.464;2022-12-07T18:20:13;7.50;;;2.60;;
59587;SDS011;45412;54.472;18.464;2022-12-07T18:23:01;6.80;;;2.70;;
59587;SDS011;45412;54.472;18.464;2022-12-07T18:25:50;7.70;;;2.70;;
59587;SDS011;45412;54.472;18.464;2022-12-07T18:28:38;6.40;;;2.10;;
59587;SDS011;45412;54.472;18.464;2022-12-07T18:31:27;8.20;;;2.60;;
59587;SDS011;45412;54.472;18.464;2022-12-07T18:34:17;6.90;;;2.20;;